Time;durP1;ratioP1;P1;durP2;ratioP2;P2;SDS_P1;SDS_P2;PMS_P1;PMS_P2;Temp;Humidity;BMP_temperature;BMP_pressure;BME280_temperature;BME280_humidity;BME280_pressure;Samples;Min_cycle;Max_cycle;Signal;HPM_P1;HPM_P2
2023/10/31 00:01:24;;;;;;;3.72;3.30;;;11.00;99.90;;;;;;7358845;32;20102;-55
2023/10/31 00:05:26;;;;;;;4.10;3.65;;;10.90;99.90;;;;;;7342790;32;20536;-57
2023/10/31 00:09:28;;;;;;;3.85;3.55;;;10.80;99.90;;;;;;7355106;32;20156;-55
2023/10/31 00:13:30;;;;;;;4.85;4.45;;;10.70;99.90;;;;;;7356884;32;20115;-55
2023/10/31 00:17:31;;;;;;;4.82;4.43;;;10.70;99.90;;;;;;7358889;32;20108;-55
2023/10/31 00:21:33;;;;;;;5.43;4.93;;;10.80;99.90;;;;;;7355366;32;20127;-55
2023/10/31 00:25:35;;;;;;;4.85;4.40;;;10.90;99.90;;;;;;7345358;32;20800;-55
2023/10/31 00:29:37;;;;;;;4.35;3.95;;;10.90;99.90;;;;;;7346041;32;20203;-55
2023/10/31 00:33:38;;;;;;;7.05;5.10;;;10.80;99.90;;;;;;7346472;32;20172;-55
2023/10/31 00:37:40;;;;;;;5.87;4.43;;;10.80;99.90;;;;;;7352055;32;20166;-56
2023/10/31 00:41:46;;;;;;;3.10;2.80;;;10.70;99.90;;;;;;7348618;32;20134;-56
2023/10/31 00:45:47;;;;;;;3.80;2.28;;;10.60;99.90;;;;;;7352993;32;20133;-56
2023/10/31 00:49:49;;;;;;;3.75;2.92;;;10.50;99.90;;;;;;7344081;32;20181;-55
2023/10/31 00:53:51;;;;;;;3.78;3.33;;;10.50;99.90;;;;;;7346955;32;20131;-56
2023/10/31 00:57:53;;;;;;;4.68;3.70;;;10.40;99.90;;;;;;7345047;32;20801;-56
2023/10/31 01:01:54;;;;;;;4.68;3.67;;;10.40;99.90;;;;;;7352503;32;20103;-56
2023/10/31 01:05:56;;;;;;;6.85;4.03;;;10.40;99.90;;;;;;7354767;32;20468;-57
2023/10/31 01:09:58;;;;;;;5.90;4.10;;;10.40;99.90;;;;;;7353248;32;20201;-56
2023/10/31 01:14:00;;;;;;;5.35;3.67;;;10.40;99.90;;;;;;7351762;32;20538;-56
2023/10/31 01:18:02;;;;;;;7.80;3.12;;;10.40;99.90;;;;;;7352714;32;20098;-56
2023/10/31 01:22:04;;;;;;;6.60;3.08;;;10.50;99.90;;;;;;7338283;32;20139;-55
2023/10/31 01:26:05;;;;;;;3.58;2.53;;;10.50;99.90;;;;;;7353292;32;20158;-56
2023/10/31 01:30:08;;;;;;;2.75;2.30;;;10.50;99.90;;;;;;7342007;32;20450;-55
2023/10/31 01:34:10;;;;;;;5.15;2.10;;;10.50;99.90;;;;;;7344454;32;20114;-55
2023/10/31 01:38:11;;;;;;;3.47;1.85;;;10.50;99.90;;;;;;7335797;32;20167;-56
2023/10/31 01:42:15;;;;;;;7.25;1.67;;;10.50;99.90;;;;;;7351274;32;20135;-56
2023/10/31 01:46:16;;;;;;;3.37;1.60;;;10.50;99.90;;;;;;7346062;32;20536;-56
2023/10/31 01:50:18;;;;;;;5.10;2.05;;;10.50;99.90;;;;;;7344879;32;20664;-56
2023/10/31 01:54:21;;;;;;;5.57;2.03;;;10.50;99.90;;;;;;7347765;32;20115;-56
2023/10/31 01:58:30;;;;;;;5.72;2.40;;;10.50;99.90;;;;;;7352874;32;20107;-56
2023/10/31 02:02:34;;;;;;;5.10;3.10;;;10.50;99.90;;;;;;7356649;32;20143;-56
2023/10/31 02:06:36;;;;;;;6.62;3.08;;;10.50;99.90;;;;;;7352516;32;20135;-56
2023/10/31 02:10:38;;;;;;;6.07;2.97;;;10.40;99.90;;;;;;7348233;32;20258;-56
2023/10/31 02:14:39;;;;;;;9.52;3.78;;;10.40;99.90;;;;;;7348202;32;20176;-56
2023/10/31 02:18:42;;;;;;;5.85;3.80;;;10.40;99.90;;;;;;7350465;32;20632;-56
2023/10/31 02:22:43;;;;;;;9.48;4.10;;;10.40;99.90;;;;;;7343580;32;20131;-56
2023/10/31 02:26:45;;;;;;;7.97;3.97;;;10.40;99.90;;;;;;7341492;32;20188;-55
2023/10/31 02:30:47;;;;;;;6.00;4.20;;;10.40;99.90;;;;;;7353044;32;20111;-56
2023/10/31 02:34:49;;;;;;;8.52;4.03;;;10.40;99.90;;;;;;7343807;32;20164;-56
2023/10/31 02:39:32;;;;;;;8.38;5.03;;;10.30;99.90;;;;;;7352155;32;20146;-57
2023/10/31 02:43:34;;;;;;;8.77;4.87;;;10.40;99.90;;;;;;7341855;32;20179;-55
2023/10/31 02:47:35;;;;;;;7.55;5.30;;;10.40;99.90;;;;;;7355034;32;20124;-56
2023/10/31 02:51:37;;;;;;;8.50;5.43;;;10.40;99.90;;;;;;7349856;32;20180;-56
2023/10/31 02:55:39;;;;;;;8.98;6.32;;;10.40;99.90;;;;;;7347695;32;20122;-55
2023/10/31 02:59:41;;;;;;;11.30;5.72;;;10.40;99.90;;;;;;7350154;32;20111;-56
2023/10/31 03:03:42;;;;;;;8.25;6.12;;;10.40;99.90;;;;;;7351280;32;20665;-56
2023/10/31 03:07:44;;;;;;;10.27;6.60;;;10.40;99.90;;;;;;7351337;32;20203;-56
2023/10/31 03:11:46;;;;;;;8.52;6.05;;;10.40;99.90;;;;;;7344787;32;20107;-56
2023/10/31 03:15:48;;;;;;;9.60;6.25;;;10.40;99.90;;;;;;7358001;32;20921;-56
2023/10/31 03:19:50;;;;;;;10.00;7.05;;;10.40;99.90;;;;;;7355360;32;20813;-56
2023/10/31 03:23:58;;;;;;;9.80;6.93;;;10.40;99.90;;;;;;7357429;32;20285;-57
2023/10/31 03:28:00;;;;;;;11.98;7.72;;;10.40;99.90;;;;;;7354561;32;20122;-55
2023/10/31 03:32:01;;;;;;;12.98;7.95;;;10.40;99.90;;;;;;7355705;32;20166;-56
2023/10/31 03:36:04;;;;;;;15.27;7.65;;;10.40;99.90;;;;;;7356120;32;20112;-56
2023/10/31 03:40:10;;;;;;;11.25;7.25;;;10.40;99.90;;;;;;7358831;32;20526;-55
2023/10/31 03:44:11;;;;;;;11.60;8.00;;;10.40;99.90;;;;;;7356498;32;20210;-56
2023/10/31 03:48:13;;;;;;;10.80;7.28;;;10.40;99.90;;;;;;7354524;32;20133;-56
2023/10/31 03:52:15;;;;;;;11.82;6.60;;;10.40;99.90;;;;;;7359234;32;20439;-55
2023/10/31 03:56:17;;;;;;;10.18;6.75;;;10.40;99.90;;;;;;7357552;32;20107;-55
2023/10/31 04:00:19;;;;;;;9.88;6.30;;;10.40;99.90;;;;;;7352412;32;20612;-56
2023/10/31 04:04:20;;;;;;;9.95;6.57;;;10.40;99.90;;;;;;7346783;32;20488;-56
2023/10/31 04:08:22;;;;;;;11.80;7.20;;;10.40;99.90;;;;;;7344683;32;20172;-56
2023/10/31 04:12:24;;;;;;;10.15;6.78;;;10.40;99.90;;;;;;7347628;32;20118;-55
2023/10/31 04:16:26;;;;;;;11.38;6.43;;;10.40;99.90;;;;;;7354762;32;20175;-55
2023/10/31 04:20:27;;;;;;;9.07;6.18;;;10.40;99.90;;;;;;7346253;32;20103;-55
2023/10/31 04:24:29;;;;;;;8.52;5.95;;;10.40;99.90;;;;;;7349724;32;20259;-56
2023/10/31 04:28:31;;;;;;;8.85;6.12;;;10.40;99.90;;;;;;7347008;32;20099;-55
2023/10/31 04:32:33;;;;;;;9.32;6.22;;;10.40;99.90;;;;;;7345543;32;20570;-55
2023/10/31 04:36:35;;;;;;;7.60;5.60;;;10.40;99.90;;;;;;7349957;32;20165;-55
2023/10/31 04:40:36;;;;;;;8.73;5.93;;;10.40;99.90;;;;;;7340375;32;20149;-55
2023/10/31 04:44:38;;;;;;;9.38;5.87;;;10.40;99.90;;;;;;7342849;32;20111;-55
2023/10/31 04:48:40;;;;;;;9.10;6.00;;;10.40;99.90;;;;;;7349607;32;20255;-56
2023/10/31 04:52:42;;;;;;;7.82;5.65;;;10.40;99.90;;;;;;7354796;32;20121;-56
2023/10/31 04:56:43;;;;;;;9.50;5.22;;;10.40;99.90;;;;;;7349559;32;20489;-55
2023/10/31 05:00:46;;;;;;;8.25;6.12;;;10.40;99.90;;;;;;7352314;32;20190;-56
2023/10/31 05:04:50;;;;;;;6.70;5.62;;;10.40;99.90;;;;;;7345543;32;20179;-56
2023/10/31 05:08:52;;;;;;;7.15;5.78;;;10.40;99.90;;;;;;7342757;32;20129;-56
2023/10/31 05:12:55;;;;;;;8.07;6.05;;;10.40;99.90;;;;;;7340165;32;20104;-56
2023/10/31 05:16:56;;;;;;;8.65;5.85;;;10.40;99.90;;;;;;7338162;32;20130;-56
2023/10/31 05:20:58;;;;;;;8.13;6.12;;;10.40;99.90;;;;;;7355793;32;20648;-56
2023/10/31 05:25:00;;;;;;;8.43;5.85;;;10.40;99.90;;;;;;7339858;32;20397;-56
2023/10/31 05:29:02;;;;;;;9.95;6.45;;;10.40;99.90;;;;;;7348410;32;20125;-56
2023/10/31 05:33:03;;;;;;;8.10;5.80;;;10.40;99.90;;;;;;7338750;32;20122;-56
2023/10/31 05:37:06;;;;;;;8.77;6.47;;;10.30;99.90;;;;;;7351676;32;20125;-57
2023/10/31 05:41:08;;;;;;;8.65;6.37;;;10.40;99.90;;;;;;7358896;32;20134;-56
2023/10/31 05:45:10;;;;;;;9.10;6.57;;;10.40;99.90;;;;;;7345773;32;20563;-56
2023/10/31 05:49:11;;;;;;;9.52;6.37;;;10.40;99.90;;;;;;7348564;32;20103;-56
2023/10/31 05:53:13;;;;;;;8.10;6.43;;;10.40;99.90;;;;;;7346675;32;20166;-56
2023/10/31 05:57:15;;;;;;;9.40;6.78;;;10.30;99.90;;;;;;7353135;32;20827;-56
2023/10/31 06:01:17;;;;;;;7.90;6.78;;;10.40;99.90;;;;;;7355044;32;20176;-55
2023/10/31 06:05:19;;;;;;;8.02;6.18;;;10.30;99.90;;;;;;7346625;32;20111;-55
2023/10/31 06:09:20;;;;;;;8.95;6.15;;;10.20;99.90;;;;;;7344851;32;20281;-57
2023/10/31 06:13:23;;;;;;;7.03;6.12;;;10.20;99.90;;;;;;7341933;32;20228;-56
2023/10/31 06:17:26;;;;;;;8.88;6.60;;;10.10;99.90;;;;;;7348937;32;20115;-56
2023/10/31 06:21:28;;;;;;;13.27;6.43;;;10.20;99.90;;;;;;7358129;32;20450;-56
2023/10/31 06:25:30;;;;;;;7.07;5.65;;;10.20;99.90;;;;;;7351820;32;20107;-57
2023/10/31 06:29:32;;;;;;;7.55;5.87;;;10.10;99.90;;;;;;7344009;32;20195;-56
2023/10/31 06:33:53;;;;;;;7.35;6.37;;;10.10;99.90;;;;;;7336059;32;20123;-56
2023/10/31 06:37:59;;;;;;;9.30;6.80;;;10.10;99.90;;;;;;7339546;32;20194;-56
2023/10/31 06:42:01;;;;;;;8.95;7.72;;;10.20;99.90;;;;;;7349488;32;20228;-56
2023/10/31 06:46:04;;;;;;;11.02;7.25;;;10.20;99.90;;;;;;7352479;32;20650;-57
2023/10/31 06:50:08;;;;;;;11.40;8.07;;;10.20;99.90;;;;;;7345163;32;20160;-57
2023/10/31 06:54:10;;;;;;;10.43;8.27;;;10.30;99.90;;;;;;7355558;32;20166;-56
2023/10/31 06:58:11;;;;;;;10.93;8.60;;;10.30;99.90;;;;;;7350118;32;20126;-56
2023/10/31 07:02:13;;;;;;;10.82;8.95;;;10.30;99.90;;;;;;7344093;32;20222;-56
2023/10/31 07:06:15;;;;;;;12.45;9.02;;;10.30;99.90;;;;;;7347853;32;20494;-55
2023/10/31 07:10:17;;;;;;;12.43;9.25;;;10.40;99.90;;;;;;7345772;32;20103;-57
2023/10/31 07:14:19;;;;;;;12.93;8.82;;;10.40;99.90;;;;;;7353530;32;20115;-57
2023/10/31 07:18:21;;;;;;;15.88;9.60;;;10.40;99.90;;;;;;7350228;32;20277;-56
2023/10/31 07:22:24;;;;;;;12.88;9.80;;;10.30;99.90;;;;;;7349881;32;20108;-56
2023/10/31 07:26:27;;;;;;;12.07;9.18;;;10.40;99.90;;;;;;7348664;32;20509;-55
2023/10/31 07:30:28;;;;;;;12.32;9.88;;;10.40;99.90;;;;;;7345999;32;20501;-57
2023/10/31 07:34:30;;;;;;;11.93;8.68;;;10.40;99.90;;;;;;7351108;32;20129;-56
2023/10/31 07:38:33;;;;;;;11.05;8.70;;;10.50;99.90;;;;;;7356795;32;20107;-56
2023/10/31 07:42:35;;;;;;;12.18;8.75;;;10.50;99.90;;;;;;7347816;32;20449;-56
2023/10/31 07:46:36;;;;;;;11.05;8.80;;;10.50;99.90;;;;;;7359373;32;20162;-56
2023/10/31 07:50:38;;;;;;;13.20;8.10;;;10.50;99.90;;;;;;7350161;32;20119;-56
2023/10/31 07:54:43;;;;;;;14.77;8.77;;;10.40;99.90;;;;;;7349826;32;20119;-55
2023/10/31 07:58:45;;;;;;;10.35;8.43;;;10.40;99.90;;;;;;7345572;32;20119;-56
2023/10/31 08:02:46;;;;;;;10.18;8.15;;;10.40;99.90;;;;;;7346291;32;20159;-55
2023/10/31 08:06:48;;;;;;;10.35;8.55;;;10.40;99.90;;;;;;7346987;32;20108;-55
2023/10/31 08:10:50;;;;;;;10.43;8.18;;;10.50;99.90;;;;;;7359011;32;20118;-55
2023/10/31 08:14:52;;;;;;;8.90;6.97;;;10.50;99.90;;;;;;7353088;32;20263;-55
2023/10/31 08:18:54;;;;;;;8.63;7.05;;;10.40;99.90;;;;;;7341590;32;20525;-55
2023/10/31 08:22:55;;;;;;;10.50;6.30;;;10.50;99.90;;;;;;7343909;32;20108;-56
2023/10/31 08:26:58;;;;;;;7.37;6.28;;;10.40;99.90;;;;;;7346707;32;20235;-55
2023/10/31 08:31:00;;;;;;;9.52;6.32;;;10.50;99.90;;;;;;7345448;32;20227;-57
2023/10/31 08:35:02;;;;;;;7.28;5.70;;;10.50;99.90;;;;;;7354143;32;20195;-57
2023/10/31 08:39:03;;;;;;;8.15;6.30;;;10.50;99.90;;;;;;7352805;32;20163;-56
2023/10/31 08:43:06;;;;;;;8.75;6.47;;;10.50;99.90;;;;;;7346720;32;20233;-57
2023/10/31 08:47:08;;;;;;;7.37;6.35;;;10.60;99.90;;;;;;7355011;32;20422;-58
2023/10/31 08:51:10;;;;;;;8.18;6.25;;;10.60;99.90;;;;;;7348605;32;20261;-56
2023/10/31 08:55:11;;;;;;;7.22;6.05;;;10.70;99.90;;;;;;7355288;32;20490;-57
2023/10/31 08:59:13;;;;;;;8.07;6.10;;;10.80;99.90;;;;;;7347581;32;20167;-57
2023/10/31 09:03:15;;;;;;;6.32;5.62;;;10.90;99.90;;;;;;7347694;32;20576;-57
2023/10/31 09:07:17;;;;;;;7.25;5.95;;;10.90;99.90;;;;;;7348444;32;20182;-57
2023/10/31 09:11:19;;;;;;;6.72;5.62;;;10.90;99.90;;;;;;7349921;32;20164;-56
2023/10/31 09:15:21;;;;;;;7.12;5.40;;;11.00;99.90;;;;;;7351327;32;20906;-56
2023/10/31 09:19:23;;;;;;;7.68;5.78;;;11.10;99.90;;;;;;7343369;32;20238;-56
2023/10/31 09:23:25;;;;;;;7.68;6.15;;;11.10;99.90;;;;;;7348220;32;20200;-57
2023/10/31 09:27:26;;;;;;;9.95;6.12;;;11.30;99.90;;;;;;7346608;32;20215;-57
2023/10/31 09:31:28;;;;;;;7.43;6.07;;;11.30;99.90;;;;;;7346260;32;20127;-57
2023/10/31 09:35:30;;;;;;;9.45;6.28;;;11.40;99.90;;;;;;7348063;32;20607;-57
2023/10/31 09:39:32;;;;;;;8.85;6.03;;;11.40;99.90;;;;;;7343288;32;20252;-56
2023/10/31 09:43:34;;;;;;;7.35;6.05;;;11.50;99.90;;;;;;7343808;32;20121;-56
2023/10/31 09:47:36;;;;;;;8.77;5.95;;;11.50;99.90;;;;;;7345491;32;20096;-56
2023/10/31 09:51:38;;;;;;;9.32;6.78;;;11.50;99.90;;;;;;7344569;32;20108;-57
2023/10/31 09:55:41;;;;;;;8.55;6.00;;;11.40;99.90;;;;;;7350617;32;20647;-57
2023/10/31 09:59:42;;;;;;;7.93;6.28;;;11.50;99.90;;;;;;7349101;32;20215;-60
2023/10/31 10:03:45;;;;;;;10.07;6.60;;;11.50;99.90;;;;;;7338476;32;20231;-57
2023/10/31 10:07:47;;;;;;;7.37;5.55;;;11.50;99.90;;;;;;7340647;32;20115;-56
2023/10/31 10:11:49;;;;;;;8.25;5.80;;;11.50;99.90;;;;;;7339658;32;20480;-57
2023/10/31 10:15:54;;;;;;;8.75;6.10;;;11.50;99.90;;;;;;7342309;32;20111;-58
2023/10/31 10:20:10;;;;;;;8.30;5.80;;;11.50;99.90;;;;;;7346048;32;20559;-59
2023/10/31 10:24:12;;;;;;;7.30;5.25;;;11.60;99.90;;;;;;7349290;32;20271;-59
2023/10/31 10:28:14;;;;;;;5.72;4.62;;;11.70;99.90;;;;;;7337592;32;21112;-56
2023/10/31 10:32:16;;;;;;;6.90;4.20;;;11.70;99.90;;;;;;7337019;32;20183;-56
2023/10/31 10:36:18;;;;;;;7.53;4.20;;;11.80;99.90;;;;;;7343837;32;20134;-56
2023/10/31 10:40:21;;;;;;;7.10;4.00;;;11.80;99.90;;;;;;7337544;32;20135;-57
2023/10/31 10:44:34;;;;;;;11.73;4.55;;;11.90;99.90;;;;;;7343397;32;20148;-56
2023/10/31 10:48:39;;;;;;;6.68;3.22;;;12.20;99.90;;;;;;7344031;32;20124;-57
2023/10/31 10:53:00;;;;;;;9.18;2.62;;;12.40;99.90;;;;;;7351277;32;20095;-56
2023/10/31 10:57:26;;;;;;;4.37;2.08;;;12.50;99.90;;;;;;7344735;32;20524;-57
2023/10/31 11:01:30;;;;;;;4.62;1.92;;;12.60;99.90;;;;;;7341642;32;20150;-57
2023/10/31 11:05:33;;;;;;;5.12;1.77;;;12.70;99.90;;;;;;7346523;32;20548;-57
2023/10/31 11:09:35;;;;;;;5.35;1.80;;;12.70;99.90;;;;;;7348435;32;20134;-56
2023/10/31 11:13:38;;;;;;;6.55;1.80;;;12.70;99.90;;;;;;7341129;32;20518;-56
2023/10/31 11:17:41;;;;;;;4.07;1.92;;;12.80;99.90;;;;;;7343948;32;20197;-57
2023/10/31 11:22:05;;;;;;;4.10;1.62;;;12.90;99.90;;;;;;7342329;32;20608;-56
2023/10/31 11:26:08;;;;;;;5.78;1.60;;;13.00;99.90;;;;;;7346157;32;20518;-56
2023/10/31 11:30:27;;;;;;;3.75;1.75;;;13.10;99.90;;;;;;7349547;32;20225;-56
2023/10/31 11:34:30;;;;;;;2.92;1.50;;;12.90;99.90;;;;;;7344297;32;20556;-57
2023/10/31 11:38:38;;;;;;;5.53;1.42;;;13.00;99.90;;;;;;7349773;32;20472;-56
2023/10/31 11:42:41;;;;;;;2.47;1.30;;;13.00;99.90;;;;;;7339773;32;20811;-56
2023/10/31 11:46:47;;;;;;;5.28;1.48;;;13.00;99.90;;;;;;7339057;32;20571;-56
2023/10/31 11:50:49;;;;;;;3.28;1.25;;;13.10;99.90;;;;;;7339464;32;20830;-56
2023/10/31 11:54:52;;;;;;;5.55;1.12;;;13.00;99.90;;;;;;7348616;32;20127;-57
2023/10/31 11:59:01;;;;;;;3.92;1.20;;;13.00;99.90;;;;;;7348149;32;20482;-56
2023/10/31 12:03:03;;;;;;;2.20;1.35;;;13.10;99.90;;;;;;7350388;32;20245;-57
2023/10/31 12:07:05;;;;;;;4.15;1.23;;;13.00;99.90;;;;;;7341348;32;20121;-57
2023/10/31 12:11:11;;;;;;;4.25;1.20;;;13.00;99.90;;;;;;7335299;32;20119;-57
2023/10/31 12:15:13;;;;;;;5.07;1.20;;;13.00;99.90;;;;;;7345283;32;20193;-57
2023/10/31 12:19:15;;;;;;;5.55;1.48;;;13.10;99.90;;;;;;7340794;32;20254;-57
2023/10/31 12:23:18;;;;;;;3.62;1.00;;;13.00;99.90;;;;;;7346471;32;20197;-56
2023/10/31 12:27:19;;;;;;;3.72;1.30;;;13.00;99.90;;;;;;7343456;32;20270;-57
2023/10/31 12:31:21;;;;;;;2.90;1.20;;;12.90;99.90;;;;;;7339866;32;20705;-56
2023/10/31 12:35:25;;;;;;;2.33;1.30;;;12.90;99.90;;;;;;7338486;32;20755;-56
2023/10/31 12:39:28;;;;;;;2.72;1.10;;;12.80;99.90;;;;;;7346348;32;20212;-57
2023/10/31 12:43:30;;;;;;;3.83;1.30;;;12.80;99.90;;;;;;7343560;32;20624;-57
2023/10/31 12:47:32;;;;;;;2.08;1.37;;;12.70;99.90;;;;;;7339915;32;20203;-57
2023/10/31 12:51:36;;;;;;;3.33;1.70;;;12.60;99.90;;;;;;7341830;32;20103;-57
2023/10/31 12:55:40;;;;;;;3.62;1.27;;;12.70;99.90;;;;;;7338865;32;20548;-57
2023/10/31 12:59:42;;;;;;;5.15;1.17;;;12.80;99.90;;;;;;7337007;32;20123;-57
2023/10/31 13:03:50;;;;;;;1.60;1.10;;;12.70;99.90;;;;;;7339858;32;20150;-57
2023/10/31 13:07:55;;;;;;;5.25;1.40;;;12.80;99.90;;;;;;7334818;32;20130;-57
2023/10/31 13:12:02;;;;;;;7.28;1.37;;;12.80;99.90;;;;;;7344889;32;20111;-57
2023/10/31 13:16:04;;;;;;;3.87;1.40;;;12.80;99.90;;;;;;7340216;32;20630;-57
2023/10/31 13:20:07;;;;;;;2.47;1.30;;;12.80;99.90;;;;;;7343873;32;20119;-57
2023/10/31 13:24:09;;;;;;;3.65;1.50;;;12.80;99.90;;;;;;7344081;32;20190;-57
2023/10/31 13:28:12;;;;;;;3.90;1.15;;;12.90;99.90;;;;;;7340055;32;20355;-58
2023/10/31 13:32:14;;;;;;;2.55;1.42;;;12.90;99.90;;;;;;7351383;32;20186;-57
2023/10/31 13:36:16;;;;;;;4.35;1.05;;;13.00;99.90;;;;;;7341972;32;20210;-57
2023/10/31 13:40:18;;;;;;;1.50;1.08;;;13.10;99.90;;;;;;7335696;32;20142;-64
2023/10/31 13:44:19;;;;;;;4.22;1.42;;;13.10;99.90;;;;;;7343249;32;20487;-63
2023/10/31 13:48:21;;;;;;;5.85;1.37;;;13.10;99.90;;;;;;7342333;32;20203;-63
2023/10/31 13:52:23;;;;;;;2.60;1.20;;;13.20;99.90;;;;;;7342778;32;20133;-58
2023/10/31 13:56:25;;;;;;;4.32;1.05;;;13.30;99.90;;;;;;7342457;32;20324;-57
2023/10/31 14:00:27;;;;;;;2.47;1.08;;;13.50;99.90;;;;;;7341553;32;20595;-56
2023/10/31 14:04:28;;;;;;;1.80;0.80;;;13.60;99.90;;;;;;7352021;32;20127;-56
2023/10/31 14:08:31;;;;;;;1.50;0.90;;;13.70;99.90;;;;;;7348744;32;20100;-56
2023/10/31 14:12:32;;;;;;;2.30;1.00;;;13.80;99.90;;;;;;7350897;32;20103;-56
2023/10/31 14:16:35;;;;;;;4.05;0.80;;;13.60;99.90;;;;;;7347223;32;20486;-57
2023/10/31 14:20:37;;;;;;;4.00;0.73;;;13.50;99.90;;;;;;7348785;32;20130;-57
2023/10/31 14:24:38;;;;;;;2.97;0.98;;;13.40;99.90;;;;;;7343633;32;20122;-59
2023/10/31 14:28:41;;;;;;;8.52;1.27;;;13.50;99.90;;;;;;7342779;32;20131;-57
2023/10/31 14:32:43;;;;;;;4.28;1.10;;;13.50;99.90;;;;;;7348260;32;20111;-57
2023/10/31 14:36:45;;;;;;;1.73;1.00;;;13.40;99.90;;;;;;7346577;32;21399;-57
2023/10/31 14:40:46;;;;;;;3.65;0.93;;;13.50;99.90;;;;;;7340814;32;20850;-57
2023/10/31 14:44:48;;;;;;;4.07;0.88;;;13.50;99.90;;;;;;7346716;32;20107;-57
2023/10/31 14:48:50;;;;;;;2.20;0.70;;;13.50;99.90;;;;;;7340326;32;20642;-57
2023/10/31 14:52:52;;;;;;;6.57;1.08;;;13.40;99.90;;;;;;7340293;32;20185;-58
2023/10/31 14:56:54;;;;;;;5.68;0.82;;;13.30;99.90;;;;;;7337911;32;20524;-57
2023/10/31 15:00:56;;;;;;;3.35;0.80;;;13.10;99.90;;;;;;7344653;32;20131;-55
2023/10/31 15:04:58;;;;;;;5.97;1.10;;;12.90;99.90;;;;;;7344220;32;20104;-56
2023/10/31 15:08:59;;;;;;;5.05;1.10;;;12.80;99.90;;;;;;7347895;32;20190;-57
2023/10/31 15:13:02;;;;;;;2.80;0.95;;;12.70;99.90;;;;;;7349492;32;20126;-57
2023/10/31 15:17:07;;;;;;;4.03;1.35;;;12.60;99.90;;;;;;7343541;32;20130;-58
2023/10/31 15:21:08;;;;;;;3.28;1.00;;;12.40;99.90;;;;;;7338922;32;20134;-58
2023/10/31 15:25:10;;;;;;;4.93;1.20;;;12.40;99.90;;;;;;7350310;32;20184;-57
2023/10/31 15:29:12;;;;;;;3.55;1.08;;;12.30;99.90;;;;;;7351190;32;20119;-58
2023/10/31 15:33:14;;;;;;;5.45;1.50;;;12.30;99.90;;;;;;7353762;32;20103;-57
2023/10/31 15:37:16;;;;;;;5.07;1.45;;;12.20;99.90;;;;;;7360335;32;20115;-58
2023/10/31 15:41:19;;;;;;;4.25;1.20;;;12.20;99.90;;;;;;7346406;32;20103;-57
2023/10/31 15:45:21;;;;;;;4.07;0.95;;;12.30;99.90;;;;;;7356073;32;20142;-58
2023/10/31 15:49:23;;;;;;;9.60;1.23;;;12.40;99.90;;;;;;7350515;32;20158;-58
2023/10/31 15:53:27;;;;;;;4.97;1.30;;;12.30;99.90;;;;;;7347999;32;20262;-57
2023/10/31 15:57:29;;;;;;;4.90;1.20;;;12.40;99.90;;;;;;7346732;32;20195;-57
2023/10/31 16:01:31;;;;;;;5.45;1.70;;;12.40;99.90;;;;;;7349358;32;20190;-57
2023/10/31 16:05:33;;;;;;;7.62;1.67;;;12.40;99.90;;;;;;7344501;32;20954;-58
2023/10/31 16:09:36;;;;;;;5.97;1.70;;;12.40;99.90;;;;;;7350373;32;20176;-58
2023/10/31 16:13:40;;;;;;;5.00;1.45;;;12.40;99.90;;;;;;7354714;32;20205;-57
2023/10/31 16:17:41;;;;;;;8.73;1.65;;;12.30;99.90;;;;;;7346934;32;20163;-58
2023/10/31 16:21:43;;;;;;;7.18;1.60;;;12.20;99.90;;;;;;7338647;32;20146;-57
2023/10/31 16:25:46;;;;;;;4.45;1.50;;;12.10;99.90;;;;;;7351948;32;20607;-57
2023/10/31 16:29:47;;;;;;;7.75;1.50;;;12.00;99.90;;;;;;7346430;32;20179;-57
2023/10/31 16:33:49;;;;;;;4.60;1.70;;;11.90;99.90;;;;;;7354908;32;20150;-56
2023/10/31 16:37:52;;;;;;;4.82;1.70;;;11.70;99.90;;;;;;7344559;32;20139;-57
2023/10/31 16:41:54;;;;;;;8.40;1.92;;;11.60;99.90;;;;;;7354969;32;20592;-57
2023/10/31 16:45:56;;;;;;;4.28;1.90;;;11.60;99.90;;;;;;7352918;32;20317;-57
2023/10/31 16:49:58;;;;;;;4.47;1.98;;;11.50;99.90;;;;;;7349033;32;20233;-56
2023/10/31 16:54:00;;;;;;;4.40;1.90;;;11.50;99.90;;;;;;7346216;32;20134;-57
2023/10/31 16:58:04;;;;;;;5.85;3.15;;;11.50;99.90;;;;;;7345859;32;20133;-57
2023/10/31 17:02:05;;;;;;;6.20;2.40;;;11.50;99.90;;;;;;7350916;32;20281;-56
2023/10/31 17:06:08;;;;;;;5.30;1.80;;;11.50;99.90;;;;;;7339760;32;20149;-56
2023/10/31 17:10:11;;;;;;;4.18;2.15;;;11.50;99.90;;;;;;7340654;32;20202;-57
2023/10/31 17:14:13;;;;;;;3.33;1.70;;;11.40;99.90;;;;;;7351398;32;20626;-57
2023/10/31 17:18:16;;;;;;;4.72;1.95;;;11.40;99.90;;;;;;7348835;32;20655;-57
2023/10/31 17:22:18;;;;;;;4.78;2.15;;;11.30;99.90;;;;;;7344750;32;20107;-56
2023/10/31 17:26:20;;;;;;;7.22;2.37;;;11.30;99.90;;;;;;7339738;32;20104;-57
2023/10/31 17:30:22;;;;;;;4.90;1.77;;;11.30;99.90;;;;;;7351646;32;20179;-58
2023/10/31 17:34:24;;;;;;;5.15;2.20;;;11.30;99.90;;;;;;7353224;32;20497;-57
2023/10/31 17:38:26;;;;;;;3.62;2.12;;;11.30;99.90;;;;;;7352617;32;20194;-58
2023/10/31 17:42:28;;;;;;;4.95;1.90;;;11.30;99.90;;;;;;7341013;32;20482;-58
2023/10/31 17:46:29;;;;;;;5.43;2.75;;;11.30;99.90;;;;;;7348628;32;20176;-56
2023/10/31 17:50:32;;;;;;;5.60;2.75;;;11.30;99.90;;;;;;7347511;32;20121;-56
2023/10/31 17:54:35;;;;;;;6.30;3.20;;;11.30;99.90;;;;;;7343219;32;20233;-56
2023/10/31 17:58:37;;;;;;;6.50;3.67;;;11.30;99.90;;;;;;7337672;32;20131;-57
2023/10/31 18:02:39;;;;;;;4.43;3.00;;;11.30;99.90;;;;;;7345186;32;20251;-56
2023/10/31 18:06:41;;;;;;;7.75;3.03;;;11.30;99.90;;;;;;7334390;32;20103;-56
2023/10/31 18:10:43;;;;;;;4.65;2.53;;;11.30;99.90;;;;;;7344855;32;20168;-57
2023/10/31 18:14:45;;;;;;;9.55;3.08;;;11.20;99.90;;;;;;7340321;32;20822;-57
2023/10/31 18:18:48;;;;;;;4.10;2.80;;;11.20;99.90;;;;;;7335101;32;20193;-56
2023/10/31 18:22:50;;;;;;;5.53;2.58;;;11.30;99.90;;;;;;7343248;32;20126;-57
2023/10/31 18:26:52;;;;;;;5.12;3.22;;;11.20;99.90;;;;;;7334433;32;20107;-57
2023/10/31 18:30:54;;;;;;;7.10;3.00;;;11.20;99.90;;;;;;7352826;32;20107;-57
2023/10/31 18:34:55;;;;;;;4.80;2.92;;;11.20;99.90;;;;;;7347329;32;20115;-56
2023/10/31 18:38:58;;;;;;;9.52;3.40;;;11.20;99.90;;;;;;7353980;32;20641;-56
2023/10/31 18:43:00;;;;;;;6.60;3.97;;;11.20;99.90;;;;;;7358261;32;20099;-57
2023/10/31 18:47:01;;;;;;;5.78;3.47;;;11.20;99.90;;;;;;7357455;32;20129;-57
2023/10/31 18:51:08;;;;;;;7.45;3.55;;;11.20;99.90;;;;;;7356205;32;20168;-58
2023/10/31 18:55:10;;;;;;;9.00;3.33;;;11.20;99.90;;;;;;7352805;32;20469;-58
2023/10/31 18:59:12;;;;;;;8.10;3.97;;;11.20;99.90;;;;;;7359042;32;20111;-56
2023/10/31 19:03:13;;;;;;;6.00;3.78;;;11.20;99.90;;;;;;7355690;32;20122;-57
2023/10/31 19:07:15;;;;;;;10.27;4.05;;;11.20;99.90;;;;;;7351433;32;20286;-54
2023/10/31 19:11:17;;;;;;;3.87;2.97;;;11.20;99.90;;;;;;7355468;32;20119;-54
2023/10/31 19:15:19;;;;;;;5.53;3.50;;;11.20;99.90;;;;;;7338967;32;20108;-54
2023/10/31 19:19:21;;;;;;;9.27;3.60;;;11.20;99.90;;;;;;7332055;32;20128;-55
2023/10/31 19:23:23;;;;;;;4.40;3.05;;;11.20;99.90;;;;;;7348356;32;20106;-54
2023/10/31 19:27:25;;;;;;;7.40;3.30;;;11.20;99.90;;;;;;7341691;32;20558;-55
2023/10/31 19:31:27;;;;;;;5.35;3.22;;;11.20;99.90;;;;;;7351464;32;20172;-54
2023/10/31 19:35:28;;;;;;;6.72;3.47;;;11.20;99.90;;;;;;7341111;32;20514;-56
2023/10/31 19:39:30;;;;;;;4.90;2.92;;;11.20;99.90;;;;;;7349321;32;20137;-57
2023/10/31 19:43:33;;;;;;;7.50;3.05;;;11.20;99.90;;;;;;7345771;32;20168;-56
2023/10/31 19:47:35;;;;;;;4.87;2.83;;;11.20;99.90;;;;;;7343056;32;20158;-57
2023/10/31 19:51:38;;;;;;;5.60;2.70;;;11.20;99.90;;;;;;7348198;32;20111;-57
2023/10/31 19:55:39;;;;;;;7.43;2.78;;;11.20;99.90;;;;;;7351792;32;20484;-55
2023/10/31 19:59:41;;;;;;;6.53;3.08;;;11.20;99.90;;;;;;7356569;32;20168;-56
2023/10/31 20:03:43;;;;;;;3.70;2.53;;;11.20;99.90;;;;;;7351837;32;20135;-58
2023/10/31 20:07:45;;;;;;;8.00;2.97;;;11.10;99.90;;;;;;7347562;32;20111;-56
2023/10/31 20:11:48;;;;;;;6.68;3.30;;;11.00;99.90;;;;;;7350385;32;20850;-58
2023/10/31 20:15:51;;;;;;;4.97;3.28;;;10.90;99.90;;;;;;7341325;32;20221;-54
2023/10/31 20:19:53;;;;;;;4.22;3.12;;;10.90;99.90;;;;;;7346003;32;20155;-56
2023/10/31 20:23:55;;;;;;;6.43;3.70;;;10.90;99.90;;;;;;7344532;32;20112;-54
2023/10/31 20:27:57;;;;;;;8.88;3.60;;;10.90;99.90;;;;;;7345624;32;20153;-54
2023/10/31 20:31:59;;;;;;;8.05;3.53;;;10.90;99.90;;;;;;7340825;32;20111;-55
2023/10/31 20:36:01;;;;;;;8.80;3.75;;;10.90;99.90;;;;;;7340641;32;20194;-55
2023/10/31 20:40:03;;;;;;;5.53;3.40;;;10.90;99.90;;;;;;7344931;32;20183;-54
2023/10/31 20:44:05;;;;;;;5.07;3.10;;;10.90;99.90;;;;;;7346323;32;20102;-55
2023/10/31 20:48:06;;;;;;;10.43;3.47;;;10.80;99.90;;;;;;7344119;32;20126;-55
2023/10/31 20:52:08;;;;;;;8.05;3.28;;;10.80;99.90;;;;;;7345725;32;20225;-57
2023/10/31 20:56:10;;;;;;;5.97;3.15;;;10.80;99.90;;;;;;7343822;32;20686;-55
2023/10/31 21:00:13;;;;;;;6.53;3.12;;;10.80;99.90;;;;;;7345024;32;20477;-56